Terminal Aerodrome Forecast
Issued by NWS

Home | Current Version | Previous Version | Text Only | Print | Product List | Glossary On
Versions: 1 2 3 4 5 6 7 8 9 10 11 12 13 14 15 16 17
000
FTUS43 KILX 281100
TAFBMI
TAF
KBMI 281126Z 2812/2912 09006KT P6SM VCSH BKN090
     FM281900 11009KT P6SM VCTS SCT040CB BKN150
     FM290100 12007KT P6SM SCT040 BKN150=

USA.gov is the U.S. government's official web portal to all federal, state and local government web resources and services.